sensor_id;sensor_type;location;lat;lon;timestamp;P1;durP1;ratioP1;P2;durP2;ratioP2
55216;SDS011;41086;46.736;15.666;2022-11-14T00:01:04;41.58;;;26.35;;
55216;SDS011;41086;46.736;15.666;2022-11-14T00:03:51;42.17;;;27.23;;
55216;SDS011;41086;46.736;15.666;2022-11-14T00:06:37;43.05;;;26.52;;
55216;SDS011;41086;46.736;15.666;2022-11-14T00:09:26;42.03;;;28.20;;
55216;SDS011;41086;46.736;15.666;2022-11-14T00:12:12;47.75;;;28.77;;
55216;SDS011;41086;46.736;15.666;2022-11-14T00:14:57;46.58;;;28.27;;
55216;SDS011;41086;46.736;15.666;2022-11-14T00:17:43;47.70;;;29.23;;
55216;SDS011;41086;46.736;15.666;2022-11-14T00:20:28;44.35;;;29.13;;
55216;SDS011;41086;46.736;15.666;2022-11-14T00:23:14;45.33;;;28.85;;
55216;SDS011;41086;46.736;15.666;2022-11-14T00:26:00;47.83;;;29.65;;
55216;SDS011;41086;46.736;15.666;2022-11-14T00:28:45;46.80;;;29.08;;
55216;SDS011;41086;46.736;15.666;2022-11-14T00:31:31;52.35;;;29.83;;
55216;SDS011;41086;46.736;15.666;2022-11-14T00:34:16;45.08;;;28.83;;
55216;SDS011;41086;46.736;15.666;2022-11-14T00:37:02;48.65;;;30.65;;
55216;SDS011;41086;46.736;15.666;2022-11-14T00:39:47;51.33;;;31.00;;
55216;SDS011;41086;46.736;15.666;2022-11-14T00:42:32;50.63;;;29.63;;
55216;SDS011;41086;46.736;15.666;2022-11-14T00:45:18;49.20;;;27.48;;
55216;SDS011;41086;46.736;15.666;2022-11-14T00:48:04;43.50;;;25.35;;
55216;SDS011;41086;46.736;15.666;2022-11-14T00:50:49;43.80;;;29.40;;
55216;SDS011;41086;46.736;15.666;2022-11-14T00:53:34;43.20;;;27.98;;
55216;SDS011;41086;46.736;15.666;2022-11-14T00:56:20;48.30;;;28.65;;
55216;SDS011;41086;46.736;15.666;2022-11-14T00:59:06;42.38;;;28.08;;
55216;SDS011;41086;46.736;15.666;2022-11-14T01:01:51;44.03;;;27.02;;
55216;SDS011;41086;46.736;15.666;2022-11-14T01:04:41;44.30;;;27.38;;
55216;SDS011;41086;46.736;15.666;2022-11-14T01:07:27;46.25;;;28.35;;
55216;SDS011;41086;46.736;15.666;2022-11-14T01:10:12;44.13;;;27.88;;
55216;SDS011;41086;46.736;15.666;2022-11-14T01:12:57;44.97;;;26.42;;
55216;SDS011;41086;46.736;15.666;2022-11-14T01:15:44;46.63;;;27.08;;
55216;SDS011;41086;46.736;15.666;2022-11-14T01:18:31;46.53;;;27.48;;
55216;SDS011;41086;46.736;15.666;2022-11-14T01:21:17;48.75;;;28.05;;
55216;SDS011;41086;46.736;15.666;2022-11-14T01:24:02;42.85;;;27.52;;
55216;SDS011;41086;46.736;15.666;2022-11-14T01:26:49;44.15;;;29.05;;
55216;SDS011;41086;46.736;15.666;2022-11-14T01:29:34;46.92;;;28.45;;
55216;SDS011;41086;46.736;15.666;2022-11-14T01:32:19;46.58;;;29.73;;
55216;SDS011;41086;46.736;15.666;2022-11-14T01:35:05;48.05;;;28.83;;
55216;SDS011;41086;46.736;15.666;2022-11-14T01:37:50;46.38;;;28.13;;
55216;SDS011;41086;46.736;15.666;2022-11-14T01:40:39;44.35;;;29.60;;
55216;SDS011;41086;46.736;15.666;2022-11-14T01:43:27;48.10;;;30.00;;
55216;SDS011;41086;46.736;15.666;2022-11-14T01:52:15;47.80;;;29.95;;
55216;SDS011;41086;46.736;15.666;2022-11-14T01:55:09;47.10;;;29.10;;
55216;SDS011;41086;46.736;15.666;2022-11-14T01:57:55;49.63;;;29.73;;
55216;SDS011;41086;46.736;15.666;2022-11-14T02:00:42;48.75;;;30.23;;
55216;SDS011;41086;46.736;15.666;2022-11-14T02:03:28;46.35;;;29.73;;
55216;SDS011;41086;46.736;15.666;2022-11-14T02:06:14;44.83;;;29.27;;
55216;SDS011;41086;46.736;15.666;2022-11-14T02:09:03;48.10;;;29.60;;
55216;SDS011;41086;46.736;15.666;2022-11-14T02:11:50;47.65;;;29.48;;
55216;SDS011;41086;46.736;15.666;2022-11-14T02:14:39;41.63;;;28.17;;
55216;SDS011;41086;46.736;15.666;2022-11-14T02:17:26;43.92;;;27.88;;
55216;SDS011;41086;46.736;15.666;2022-11-14T02:20:24;47.17;;;30.90;;
55216;SDS011;41086;46.736;15.666;2022-11-14T02:23:23;46.35;;;29.13;;
55216;SDS011;41086;46.736;15.666;2022-11-14T02:26:10;52.92;;;29.83;;
55216;SDS011;41086;46.736;15.666;2022-11-14T02:28:56;54.45;;;31.60;;
55216;SDS011;41086;46.736;15.666;2022-11-14T02:31:41;45.35;;;29.70;;
55216;SDS011;41086;46.736;15.666;2022-11-14T02:34:27;49.75;;;30.42;;
55216;SDS011;41086;46.736;15.666;2022-11-14T02:37:12;47.22;;;29.33;;
55216;SDS011;41086;46.736;15.666;2022-11-14T02:39:57;42.60;;;25.52;;
55216;SDS011;41086;46.736;15.666;2022-11-14T02:42:43;43.70;;;26.52;;
55216;SDS011;41086;46.736;15.666;2022-11-14T02:45:28;44.17;;;28.83;;
55216;SDS011;41086;46.736;15.666;2022-11-14T02:48:13;49.35;;;31.05;;
55216;SDS011;41086;46.736;15.666;2022-11-14T02:50:58;50.45;;;29.90;;
55216;SDS011;41086;46.736;15.666;2022-11-14T02:53:44;42.15;;;24.80;;
55216;SDS011;41086;46.736;15.666;2022-11-14T02:56:29;42.80;;;26.27;;
55216;SDS011;41086;46.736;15.666;2022-11-14T02:59:14;49.15;;;27.75;;
55216;SDS011;41086;46.736;15.666;2022-11-14T03:02:00;46.67;;;29.13;;
55216;SDS011;41086;46.736;15.666;2022-11-14T03:04:45;44.92;;;27.92;;
55216;SDS011;41086;46.736;15.666;2022-11-14T03:07:30;45.05;;;28.23;;
55216;SDS011;41086;46.736;15.666;2022-11-14T03:10:16;48.47;;;27.58;;
55216;SDS011;41086;46.736;15.666;2022-11-14T03:13:01;44.15;;;28.20;;
55216;SDS011;41086;46.736;15.666;2022-11-14T03:15:47;42.65;;;27.20;;
55216;SDS011;41086;46.736;15.666;2022-11-14T03:18:32;42.92;;;26.05;;
55216;SDS011;41086;46.736;15.666;2022-11-14T03:21:18;49.05;;;28.60;;
55216;SDS011;41086;46.736;15.666;2022-11-14T03:24:06;49.95;;;30.60;;
55216;SDS011;41086;46.736;15.666;2022-11-14T03:26:51;52.33;;;31.35;;
55216;SDS011;41086;46.736;15.666;2022-11-14T03:29:36;46.05;;;28.75;;
55216;SDS011;41086;46.736;15.666;2022-11-14T03:32:21;49.90;;;31.13;;
55216;SDS011;41086;46.736;15.666;2022-11-14T03:35:07;48.25;;;29.05;;
55216;SDS011;41086;46.736;15.666;2022-11-14T03:37:52;50.70;;;30.58;;
55216;SDS011;41086;46.736;15.666;2022-11-14T03:40:40;53.38;;;31.65;;
55216;SDS011;41086;46.736;15.666;2022-11-14T03:43:29;51.78;;;30.98;;
55216;SDS011;41086;46.736;15.666;2022-11-14T03:46:15;49.28;;;30.52;;
55216;SDS011;41086;46.736;15.666;2022-11-14T03:49:01;49.88;;;30.92;;
55216;SDS011;41086;46.736;15.666;2022-11-14T03:51:46;52.72;;;30.50;;
55216;SDS011;41086;46.736;15.666;2022-11-14T03:54:32;50.35;;;28.92;;
55216;SDS011;41086;46.736;15.666;2022-11-14T03:57:17;54.95;;;32.33;;
55216;SDS011;41086;46.736;15.666;2022-11-14T04:00:03;47.22;;;30.75;;
55216;SDS011;41086;46.736;15.666;2022-11-14T04:02:48;52.47;;;30.40;;
55216;SDS011;41086;46.736;15.666;2022-11-14T04:05:34;51.72;;;30.83;;
55216;SDS011;41086;46.736;15.666;2022-11-14T04:08:19;52.35;;;31.70;;
55216;SDS011;41086;46.736;15.666;2022-11-14T04:11:05;48.22;;;29.95;;
55216;SDS011;41086;46.736;15.666;2022-11-14T04:13:50;53.80;;;31.80;;
55216;SDS011;41086;46.736;15.666;2022-11-14T04:16:35;51.10;;;31.70;;
55216;SDS011;41086;46.736;15.666;2022-11-14T04:19:20;49.53;;;30.60;;
55216;SDS011;41086;46.736;15.666;2022-11-14T04:22:06;49.50;;;30.83;;
55216;SDS011;41086;46.736;15.666;2022-11-14T04:24:51;45.20;;;28.88;;
55216;SDS011;41086;46.736;15.666;2022-11-14T04:27:36;48.15;;;30.60;;
55216;SDS011;41086;46.736;15.666;2022-11-14T04:30:22;50.90;;;30.52;;
55216;SDS011;41086;46.736;15.666;2022-11-14T04:33:07;47.47;;;30.70;;
55216;SDS011;41086;46.736;15.666;2022-11-14T04:35:52;53.70;;;31.52;;
55216;SDS011;41086;46.736;15.666;2022-11-14T04:38:38;52.20;;;30.92;;
55216;SDS011;41086;46.736;15.666;2022-11-14T04:41:23;52.38;;;30.67;;
55216;SDS011;41086;46.736;15.666;2022-11-14T04:44:09;48.17;;;30.35;;
55216;SDS011;41086;46.736;15.666;2022-11-14T04:46:54;49.40;;;31.02;;
55216;SDS011;41086;46.736;15.666;2022-11-14T04:49:40;66.13;;;32.28;;
55216;SDS011;41086;46.736;15.666;2022-11-14T04:52:25;48.58;;;30.23;;
55216;SDS011;41086;46.736;15.666;2022-11-14T04:55:11;50.78;;;31.30;;
55216;SDS011;41086;46.736;15.666;2022-11-14T04:57:56;53.78;;;31.70;;
55216;SDS011;41086;46.736;15.666;2022-11-14T05:00:43;52.17;;;31.10;;
55216;SDS011;41086;46.736;15.666;2022-11-14T05:03:28;52.38;;;31.63;;
55216;SDS011;41086;46.736;15.666;2022-11-14T05:06:13;51.65;;;31.67;;
55216;SDS011;41086;46.736;15.666;2022-11-14T05:08:59;48.53;;;30.17;;
55216;SDS011;41086;46.736;15.666;2022-11-14T05:11:44;49.13;;;30.67;;
55216;SDS011;41086;46.736;15.666;2022-11-14T05:14:29;42.58;;;26.98;;
55216;SDS011;41086;46.736;15.666;2022-11-14T05:17:15;47.63;;;29.42;;
55216;SDS011;41086;46.736;15.666;2022-11-14T05:20:01;48.78;;;32.17;;
55216;SDS011;41086;46.736;15.666;2022-11-14T05:22:47;51.83;;;32.60;;
55216;SDS011;41086;46.736;15.666;2022-11-14T05:25:36;59.95;;;36.28;;
55216;SDS011;41086;46.736;15.666;2022-11-14T05:28:21;65.50;;;39.28;;
55216;SDS011;41086;46.736;15.666;2022-11-14T05:31:11;59.75;;;38.28;;
55216;SDS011;41086;46.736;15.666;2022-11-14T05:33:58;55.85;;;38.03;;
55216;SDS011;41086;46.736;15.666;2022-11-14T05:36:44;73.72;;;43.22;;
55216;SDS011;41086;46.736;15.666;2022-11-14T05:39:29;52.90;;;33.97;;
55216;SDS011;41086;46.736;15.666;2022-11-14T05:42:15;58.55;;;36.08;;
55216;SDS011;41086;46.736;15.666;2022-11-14T05:45:01;55.20;;;34.45;;
55216;SDS011;41086;46.736;15.666;2022-11-14T05:47:46;53.20;;;33.75;;
55216;SDS011;41086;46.736;15.666;2022-11-14T05:50:32;57.40;;;33.65;;
55216;SDS011;41086;46.736;15.666;2022-11-14T05:53:17;60.38;;;35.08;;
55216;SDS011;41086;46.736;15.666;2022-11-14T05:56:03;67.30;;;42.22;;
55216;SDS011;41086;46.736;15.666;2022-11-14T05:58:49;57.13;;;37.72;;
55216;SDS011;41086;46.736;15.666;2022-11-14T06:01:36;58.55;;;37.30;;
55216;SDS011;41086;46.736;15.666;2022-11-14T06:04:21;56.63;;;34.90;;
55216;SDS011;41086;46.736;15.666;2022-11-14T06:07:07;54.03;;;32.33;;
55216;SDS011;41086;46.736;15.666;2022-11-14T06:09:52;53.55;;;34.50;;
55216;SDS011;41086;46.736;15.666;2022-11-14T06:12:37;55.95;;;34.33;;
55216;SDS011;41086;46.736;15.666;2022-11-14T06:15:23;53.70;;;33.83;;
55216;SDS011;41086;46.736;15.666;2022-11-14T06:18:08;58.33;;;33.40;;
55216;SDS011;41086;46.736;15.666;2022-11-14T06:20:57;50.70;;;32.70;;
55216;SDS011;41086;46.736;15.666;2022-11-14T06:23:46;58.38;;;34.33;;
55216;SDS011;41086;46.736;15.666;2022-11-14T06:26:32;48.97;;;33.10;;
55216;SDS011;41086;46.736;15.666;2022-11-14T06:29:18;50.35;;;32.40;;
55216;SDS011;41086;46.736;15.666;2022-11-14T06:32:03;53.28;;;31.65;;
55216;SDS011;41086;46.736;15.666;2022-11-14T06:34:49;48.53;;;31.35;;
55216;SDS011;41086;46.736;15.666;2022-11-14T06:37:35;51.55;;;31.98;;
55216;SDS011;41086;46.736;15.666;2022-11-14T06:40:20;50.35;;;31.98;;
55216;SDS011;41086;46.736;15.666;2022-11-14T06:43:06;51.25;;;32.65;;
55216;SDS011;41086;46.736;15.666;2022-11-14T06:45:54;57.20;;;31.38;;
55216;SDS011;41086;46.736;15.666;2022-11-14T06:51:25;52.90;;;31.60;;
55216;SDS011;41086;46.736;15.666;2022-11-14T06:54:11;50.25;;;31.33;;
55216;SDS011;41086;46.736;15.666;2022-11-14T06:56:57;54.78;;;32.05;;
55216;SDS011;41086;46.736;15.666;2022-11-14T06:59:42;50.08;;;32.50;;
55216;SDS011;41086;46.736;15.666;2022-11-14T07:02:28;50.25;;;30.30;;
55216;SDS011;41086;46.736;15.666;2022-11-14T07:05:13;46.75;;;29.15;;
55216;SDS011;41086;46.736;15.666;2022-11-14T07:07:58;43.72;;;29.63;;
55216;SDS011;41086;46.736;15.666;2022-11-14T07:10:44;47.30;;;31.73;;
55216;SDS011;41086;46.736;15.666;2022-11-14T07:13:30;45.40;;;27.58;;
55216;SDS011;41086;46.736;15.666;2022-11-14T07:16:16;45.67;;;27.73;;
55216;SDS011;41086;46.736;15.666;2022-11-14T07:19:03;42.50;;;28.95;;
55216;SDS011;41086;46.736;15.666;2022-11-14T07:21:50;43.00;;;25.55;;
55216;SDS011;41086;46.736;15.666;2022-11-14T07:24:36;40.65;;;24.73;;
55216;SDS011;41086;46.736;15.666;2022-11-14T07:27:21;39.17;;;26.38;;
55216;SDS011;41086;46.736;15.666;2022-11-14T07:30:07;34.15;;;24.83;;
55216;SDS011;41086;46.736;15.666;2022-11-14T07:32:54;36.88;;;25.73;;
55216;SDS011;41086;46.736;15.666;2022-11-14T07:35:42;35.83;;;24.92;;
55216;SDS011;41086;46.736;15.666;2022-11-14T07:38:29;38.47;;;25.38;;
55216;SDS011;41086;46.736;15.666;2022-11-14T07:41:18;35.70;;;24.35;;
55216;SDS011;41086;46.736;15.666;2022-11-14T07:44:03;34.85;;;24.20;;
55216;SDS011;41086;46.736;15.666;2022-11-14T07:46:49;34.33;;;23.63;;
55216;SDS011;41086;46.736;15.666;2022-11-14T07:49:35;36.88;;;23.55;;
55216;SDS011;41086;46.736;15.666;2022-11-14T07:52:20;33.67;;;22.98;;
55216;SDS011;41086;46.736;15.666;2022-11-14T07:55:06;35.58;;;23.58;;
55216;SDS011;41086;46.736;15.666;2022-11-14T07:57:52;29.80;;;21.95;;
55216;SDS011;41086;46.736;15.666;2022-11-14T08:00:39;28.35;;;20.42;;
55216;SDS011;41086;46.736;15.666;2022-11-14T08:03:24;34.60;;;21.17;;
55216;SDS011;41086;46.736;15.666;2022-11-14T08:06:10;32.97;;;22.17;;
55216;SDS011;41086;46.736;15.666;2022-11-14T08:08:56;31.13;;;21.15;;
55216;SDS011;41086;46.736;15.666;2022-11-14T08:11:42;35.95;;;22.15;;
55216;SDS011;41086;46.736;15.666;2022-11-14T08:14:33;31.60;;;22.30;;
55216;SDS011;41086;46.736;15.666;2022-11-14T08:17:19;34.42;;;23.50;;
55216;SDS011;41086;46.736;15.666;2022-11-14T08:20:06;36.63;;;24.38;;
55216;SDS011;41086;46.736;15.666;2022-11-14T08:23:02;33.55;;;21.52;;
55216;SDS011;41086;46.736;15.666;2022-11-14T08:25:49;36.63;;;23.15;;
55216;SDS011;41086;46.736;15.666;2022-11-14T08:28:34;32.35;;;21.33;;
55216;SDS011;41086;46.736;15.666;2022-11-14T08:31:20;34.00;;;21.55;;
55216;SDS011;41086;46.736;15.666;2022-11-14T08:34:06;32.22;;;23.40;;
55216;SDS011;41086;46.736;15.666;2022-11-14T08:36:51;32.08;;;22.30;;
55216;SDS011;41086;46.736;15.666;2022-11-14T08:39:36;31.75;;;22.20;;
55216;SDS011;41086;46.736;15.666;2022-11-14T08:42:22;31.70;;;21.33;;
55216;SDS011;41086;46.736;15.666;2022-11-14T08:45:07;32.60;;;21.33;;
55216;SDS011;41086;46.736;15.666;2022-11-14T08:47:53;38.92;;;24.15;;
55216;SDS011;41086;46.736;15.666;2022-11-14T08:50:39;38.55;;;24.52;;
55216;SDS011;41086;46.736;15.666;2022-11-14T08:53:24;37.97;;;24.67;;
55216;SDS011;41086;46.736;15.666;2022-11-14T08:56:10;40.15;;;22.45;;
55216;SDS011;41086;46.736;15.666;2022-11-14T08:58:55;35.85;;;22.13;;
55216;SDS011;41086;46.736;15.666;2022-11-14T09:01:40;41.60;;;25.15;;
55216;SDS011;41086;46.736;15.666;2022-11-14T09:04:26;32.05;;;22.95;;
55216;SDS011;41086;46.736;15.666;2022-11-14T09:07:12;34.83;;;22.77;;
55216;SDS011;41086;46.736;15.666;2022-11-14T09:09:57;36.90;;;24.50;;
55216;SDS011;41086;46.736;15.666;2022-11-14T09:12:43;41.13;;;25.42;;
55216;SDS011;41086;46.736;15.666;2022-11-14T09:15:28;40.75;;;26.35;;
55216;SDS011;41086;46.736;15.666;2022-11-14T09:18:14;35.08;;;22.85;;
55216;SDS011;41086;46.736;15.666;2022-11-14T09:21:00;41.95;;;26.08;;
55216;SDS011;41086;46.736;15.666;2022-11-14T09:23:47;38.38;;;23.95;;
55216;SDS011;41086;46.736;15.666;2022-11-14T09:26:32;38.33;;;25.55;;
55216;SDS011;41086;46.736;15.666;2022-11-14T09:29:18;42.65;;;26.15;;
55216;SDS011;41086;46.736;15.666;2022-11-14T09:32:03;42.00;;;27.58;;
55216;SDS011;41086;46.736;15.666;2022-11-14T09:34:48;39.50;;;25.05;;
55216;SDS011;41086;46.736;15.666;2022-11-14T09:37:34;44.78;;;28.23;;
55216;SDS011;41086;46.736;15.666;2022-11-14T09:40:19;42.75;;;27.95;;
55216;SDS011;41086;46.736;15.666;2022-11-14T09:46:27;50.05;;;29.55;;
55216;SDS011;41086;46.736;15.666;2022-11-14T09:55:21;50.25;;;28.60;;
55216;SDS011;41086;46.736;15.666;2022-11-14T09:58:18;44.08;;;28.70;;
55216;SDS011;41086;46.736;15.666;2022-11-14T10:01:29;50.13;;;30.88;;
55216;SDS011;41086;46.736;15.666;2022-11-14T10:04:23;48.95;;;30.08;;
55216;SDS011;41086;46.736;15.666;2022-11-14T10:07:45;50.58;;;31.15;;
55216;SDS011;41086;46.736;15.666;2022-11-14T10:10:53;44.08;;;28.08;;
55216;SDS011;41086;46.736;15.666;2022-11-14T10:20:02;50.75;;;26.95;;
55216;SDS011;41086;46.736;15.666;2022-11-14T10:23:04;54.17;;;31.17;;
55216;SDS011;41086;46.736;15.666;2022-11-14T10:29:42;55.90;;;33.58;;
55216;SDS011;41086;46.736;15.666;2022-11-14T10:35:27;52.60;;;31.83;;
55216;SDS011;41086;46.736;15.666;2022-11-14T10:38:23;51.63;;;30.95;;
55216;SDS011;41086;46.736;15.666;2022-11-14T10:41:20;52.20;;;31.13;;
55216;SDS011;41086;46.736;15.666;2022-11-14T10:44:35;59.72;;;31.83;;
55216;SDS011;41086;46.736;15.666;2022-11-14T10:47:25;56.70;;;33.22;;
55216;SDS011;41086;46.736;15.666;2022-11-14T10:50:19;52.25;;;30.35;;
55216;SDS011;41086;46.736;15.666;2022-11-14T10:53:18;52.90;;;31.20;;
55216;SDS011;41086;46.736;15.666;2022-11-14T10:56:26;56.72;;;31.63;;
55216;SDS011;41086;46.736;15.666;2022-11-14T10:59:11;49.72;;;31.25;;
55216;SDS011;41086;46.736;15.666;2022-11-14T11:01:57;54.05;;;31.35;;
55216;SDS011;41086;46.736;15.666;2022-11-14T11:04:43;50.75;;;29.50;;
55216;SDS011;41086;46.736;15.666;2022-11-14T11:07:29;51.40;;;30.30;;
55216;SDS011;41086;46.736;15.666;2022-11-14T11:10:33;51.25;;;27.77;;
55216;SDS011;41086;46.736;15.666;2022-11-14T11:13:47;56.53;;;30.70;;
55216;SDS011;41086;46.736;15.666;2022-11-14T11:16:36;50.88;;;28.17;;
55216;SDS011;41086;46.736;15.666;2022-11-14T11:19:22;52.08;;;31.33;;
55216;SDS011;41086;46.736;15.666;2022-11-14T11:22:26;54.47;;;29.27;;
55216;SDS011;41086;46.736;15.666;2022-11-14T11:25:35;50.97;;;31.20;;
55216;SDS011;41086;46.736;15.666;2022-11-14T11:28:20;54.05;;;30.88;;
55216;SDS011;41086;46.736;15.666;2022-11-14T11:31:07;56.25;;;32.08;;
55216;SDS011;41086;46.736;15.666;2022-11-14T11:33:54;49.33;;;28.48;;
55216;SDS011;41086;46.736;15.666;2022-11-14T11:36:44;55.30;;;29.30;;
55216;SDS011;41086;46.736;15.666;2022-11-14T11:39:35;53.30;;;31.23;;
55216;SDS011;41086;46.736;15.666;2022-11-14T11:42:31;53.08;;;30.27;;
55216;SDS011;41086;46.736;15.666;2022-11-14T11:45:44;52.60;;;30.45;;
55216;SDS011;41086;46.736;15.666;2022-11-14T11:48:36;58.08;;;33.00;;
55216;SDS011;41086;46.736;15.666;2022-11-14T11:51:23;50.08;;;29.17;;
55216;SDS011;41086;46.736;15.666;2022-11-14T11:57:02;54.63;;;31.30;;
55216;SDS011;41086;46.736;15.666;2022-11-14T12:00:12;55.97;;;33.63;;
55216;SDS011;41086;46.736;15.666;2022-11-14T12:03:00;50.72;;;28.75;;
55216;SDS011;41086;46.736;15.666;2022-11-14T12:05:52;53.00;;;29.55;;
55216;SDS011;41086;46.736;15.666;2022-11-14T12:11:47;48.25;;;27.75;;
55216;SDS011;41086;46.736;15.666;2022-11-14T12:14:54;52.08;;;31.80;;
55216;SDS011;41086;46.736;15.666;2022-11-14T12:21:08;51.10;;;29.60;;
55216;SDS011;41086;46.736;15.666;2022-11-14T12:30:13;58.65;;;33.95;;
55216;SDS011;41086;46.736;15.666;2022-11-14T12:36:23;52.70;;;31.70;;
55216;SDS011;41086;46.736;15.666;2022-11-14T12:39:23;50.42;;;27.00;;
55216;SDS011;41086;46.736;15.666;2022-11-14T12:42:11;55.88;;;30.60;;
55216;SDS011;41086;46.736;15.666;2022-11-14T12:45:02;58.63;;;34.80;;
55216;SDS011;41086;46.736;15.666;2022-11-14T12:48:34;62.67;;;32.20;;
55216;SDS011;41086;46.736;15.666;2022-11-14T12:54:40;56.33;;;32.70;;
55216;SDS011;41086;46.736;15.666;2022-11-14T12:57:41;63.92;;;35.05;;
55216;SDS011;41086;46.736;15.666;2022-11-14T13:00:33;73.18;;;37.10;;
55216;SDS011;41086;46.736;15.666;2022-11-14T13:15:30;72.32;;;33.70;;
55216;SDS011;41086;46.736;15.666;2022-11-14T13:18:45;68.57;;;32.35;;
55216;SDS011;41086;46.736;15.666;2022-11-14T13:27:48;72.50;;;39.10;;
55216;SDS011;41086;46.736;15.666;2022-11-14T13:33:51;70.88;;;34.13;;
55216;SDS011;41086;46.736;15.666;2022-11-14T13:36:58;77.63;;;40.00;;
55216;SDS011;41086;46.736;15.666;2022-11-14T13:40:06;75.60;;;35.03;;
55216;SDS011;41086;46.736;15.666;2022-11-14T13:52:18;82.32;;;38.95;;
55216;SDS011;41086;46.736;15.666;2022-11-14T13:55:04;83.20;;;41.22;;
55216;SDS011;41086;46.736;15.666;2022-11-14T14:16:35;84.95;;;41.38;;
55216;SDS011;41086;46.736;15.666;2022-11-14T14:22:41;92.07;;;41.67;;
55216;SDS011;41086;46.736;15.666;2022-11-14T14:31:36;86.25;;;40.45;;
55216;SDS011;41086;46.736;15.666;2022-11-14T14:34:28;92.20;;;42.72;;
55216;SDS011;41086;46.736;15.666;2022-11-14T14:37:16;99.93;;;43.45;;
55216;SDS011;41086;46.736;15.666;2022-11-14T14:40:06;86.05;;;41.17;;
55216;SDS011;41086;46.736;15.666;2022-11-14T14:43:06;89.80;;;43.42;;
55216;SDS011;41086;46.736;15.666;2022-11-14T14:45:52;99.85;;;46.17;;
55216;SDS011;41086;46.736;15.666;2022-11-14T14:48:39;105.60;;;44.88;;
55216;SDS011;41086;46.736;15.666;2022-11-14T14:51:31;113.65;;;48.05;;
55216;SDS011;41086;46.736;15.666;2022-11-14T14:54:22;99.10;;;46.20;;
55216;SDS011;41086;46.736;15.666;2022-11-14T14:57:15;108.20;;;47.70;;
55216;SDS011;41086;46.736;15.666;2022-11-14T15:00:18;107.20;;;46.83;;
55216;SDS011;41086;46.736;15.666;2022-11-14T15:03:09;110.70;;;50.28;;
55216;SDS011;41086;46.736;15.666;2022-11-14T15:05:58;116.72;;;47.25;;
55216;SDS011;41086;46.736;15.666;2022-11-14T15:08:45;105.63;;;45.55;;
55216;SDS011;41086;46.736;15.666;2022-11-14T15:11:31;98.47;;;45.20;;
55216;SDS011;41086;46.736;15.666;2022-11-14T15:14:19;102.40;;;46.67;;
55216;SDS011;41086;46.736;15.666;2022-11-14T15:19:52;111.63;;;44.65;;
55216;SDS011;41086;46.736;15.666;2022-11-14T15:22:38;117.90;;;47.70;;
55216;SDS011;41086;46.736;15.666;2022-11-14T15:25:23;102.90;;;45.67;;
55216;SDS011;41086;46.736;15.666;2022-11-14T15:28:18;114.40;;;46.72;;
55216;SDS011;41086;46.736;15.666;2022-11-14T15:31:11;121.95;;;49.00;;
55216;SDS011;41086;46.736;15.666;2022-11-14T15:34:19;112.75;;;47.65;;
55216;SDS011;41086;46.736;15.666;2022-11-14T15:37:20;107.30;;;48.35;;
55216;SDS011;41086;46.736;15.666;2022-11-14T15:40:19;115.07;;;48.95;;
55216;SDS011;41086;46.736;15.666;2022-11-14T15:46:25;124.20;;;47.47;;
55216;SDS011;41086;46.736;15.666;2022-11-14T15:49:19;136.38;;;49.78;;
55216;SDS011;41086;46.736;15.666;2022-11-14T15:52:16;131.98;;;51.03;;
55216;SDS011;41086;46.736;15.666;2022-11-14T15:55:18;130.52;;;51.17;;
55216;SDS011;41086;46.736;15.666;2022-11-14T15:58:09;143.30;;;51.17;;
55216;SDS011;41086;46.736;15.666;2022-11-14T16:01:16;139.52;;;50.72;;
55216;SDS011;41086;46.736;15.666;2022-11-14T16:04:15;156.15;;;52.80;;
55216;SDS011;41086;46.736;15.666;2022-11-14T16:07:02;150.75;;;52.63;;
55216;SDS011;41086;46.736;15.666;2022-11-14T16:09:48;153.57;;;53.13;;
55216;SDS011;41086;46.736;15.666;2022-11-14T16:12:34;151.60;;;51.28;;
55216;SDS011;41086;46.736;15.666;2022-11-14T16:15:20;147.05;;;50.88;;
55216;SDS011;41086;46.736;15.666;2022-11-14T16:18:09;181.50;;;66.28;;
55216;SDS011;41086;46.736;15.666;2022-11-14T16:20:55;180.50;;;57.53;;
55216;SDS011;41086;46.736;15.666;2022-11-14T16:23:43;158.90;;;54.33;;
55216;SDS011;41086;46.736;15.666;2022-11-14T16:26:31;164.25;;;53.72;;
55216;SDS011;41086;46.736;15.666;2022-11-14T16:29:17;157.32;;;52.35;;
55216;SDS011;41086;46.736;15.666;2022-11-14T16:32:02;170.05;;;52.22;;
55216;SDS011;41086;46.736;15.666;2022-11-14T16:34:47;183.60;;;54.05;;
55216;SDS011;41086;46.736;15.666;2022-11-14T16:37:33;176.48;;;54.38;;
55216;SDS011;41086;46.736;15.666;2022-11-14T16:40:21;189.52;;;57.13;;
55216;SDS011;41086;46.736;15.666;2022-11-14T16:43:13;178.50;;;54.45;;
55216;SDS011;41086;46.736;15.666;2022-11-14T16:46:02;184.20;;;53.72;;
55216;SDS011;41086;46.736;15.666;2022-11-14T16:48:49;222.23;;;56.60;;
55216;SDS011;41086;46.736;15.666;2022-11-14T16:51:34;198.48;;;57.13;;
55216;SDS011;41086;46.736;15.666;2022-11-14T16:54:35;206.32;;;56.78;;
55216;SDS011;41086;46.736;15.666;2022-11-14T16:57:20;192.13;;;55.20;;
55216;SDS011;41086;46.736;15.666;2022-11-14T17:00:07;225.00;;;56.85;;
55216;SDS011;41086;46.736;15.666;2022-11-14T17:02:56;189.32;;;57.22;;
55216;SDS011;41086;46.736;15.666;2022-11-14T17:05:46;209.93;;;57.20;;
55216;SDS011;41086;46.736;15.666;2022-11-14T17:08:34;205.63;;;56.80;;
55216;SDS011;41086;46.736;15.666;2022-11-14T17:11:19;227.20;;;58.65;;
55216;SDS011;41086;46.736;15.666;2022-11-14T17:14:05;200.88;;;56.13;;
55216;SDS011;41086;46.736;15.666;2022-11-14T17:16:51;215.23;;;57.53;;
55216;SDS011;41086;46.736;15.666;2022-11-14T17:19:36;207.70;;;52.10;;
55216;SDS011;41086;46.736;15.666;2022-11-14T17:22:29;213.98;;;55.65;;
55216;SDS011;41086;46.736;15.666;2022-11-14T17:25:14;187.90;;;54.35;;
55216;SDS011;41086;46.736;15.666;2022-11-14T17:28:00;219.43;;;55.53;;
55216;SDS011;41086;46.736;15.666;2022-11-14T17:30:45;202.88;;;54.40;;
55216;SDS011;41086;46.736;15.666;2022-11-14T17:33:30;275.17;;;60.65;;
55216;SDS011;41086;46.736;15.666;2022-11-14T17:36:17;229.52;;;73.85;;
55216;SDS011;41086;46.736;15.666;2022-11-14T17:39:02;246.40;;;59.28;;
55216;SDS011;41086;46.736;15.666;2022-11-14T17:41:48;191.88;;;56.35;;
55216;SDS011;41086;46.736;15.666;2022-11-14T17:44:33;267.60;;;68.70;;
55216;SDS011;41086;46.736;15.666;2022-11-14T17:47:19;202.68;;;56.22;;
55216;SDS011;41086;46.736;15.666;2022-11-14T17:50:04;220.30;;;57.53;;
55216;SDS011;41086;46.736;15.666;2022-11-14T17:52:50;226.68;;;59.35;;
55216;SDS011;41086;46.736;15.666;2022-11-14T17:55:35;195.63;;;56.25;;
55216;SDS011;41086;46.736;15.666;2022-11-14T17:58:21;301.42;;;59.25;;
55216;SDS011;41086;46.736;15.666;2022-11-14T18:01:11;202.95;;;58.78;;
55216;SDS011;41086;46.736;15.666;2022-11-14T18:03:58;211.00;;;53.53;;
55216;SDS011;41086;46.736;15.666;2022-11-14T18:06:49;287.15;;;61.35;;